Time;durP1;ratioP1;P1;durP2;ratioP2;P2;SDS_P1;SDS_P2;PMS_P1;PMS_P2;Temp;Humidity;BMP_temperature;BMP_pressure;BME280_temperature;BME280_humidity;BME280_pressure;Samples;Min_cycle;Max_cycle;Signal;HPM_P1;HPM_P2
2022/10/10 00:00:37;;;;;;;7.53;3.92;;;8.10;99.90;;;;;;5059413;28;20048;-62
2022/10/10 00:03:03;;;;;;;;;;;8.10;99.90;;;;;;5054880;28;20044;-62
2022/10/10 00:05:29;;;;;;;6.50;4.20;;;8.10;99.90;;;;;;5060834;28;19920;-63
2022/10/10 00:07:54;;;;;;;3.43;3.13;;;8.10;99.90;;;;;;5069024;28;20064;-62
2022/10/10 00:10:20;;;;;;;6.47;4.60;;;8.10;99.90;;;;;;5056364;28;20803;-62
2022/10/10 00:12:46;;;;;;;4.63;4.03;;;8.10;99.90;;;;;;5071804;28;20037;-62
2022/10/10 00:15:12;;;;;;;5.87;4.33;;;8.00;99.90;;;;;;5064307;28;20029;-62
2022/10/10 00:17:39;;;;;;;7.45;3.53;;;8.00;99.90;;;;;;5061754;28;20405;-62
2022/10/10 00:20:05;;;;;;;4.05;3.65;;;8.00;99.90;;;;;;5062105;28;20068;-63
2022/10/10 00:22:31;;;;;;;6.05;4.20;;;7.90;99.90;;;;;;5054404;28;20037;-63
2022/10/10 00:24:57;;;;;;;6.65;4.10;;;7.90;99.90;;;;;;5064878;28;20041;-62
2022/10/10 00:27:22;;;;;;;5.70;3.87;;;7.80;99.90;;;;;;5057043;28;20064;-62
2022/10/10 00:29:48;;;;;;;8.83;4.00;;;7.80;99.90;;;;;;5068390;28;20419;-62
2022/10/10 00:32:13;;;;;;;7.70;5.00;;;7.90;99.90;;;;;;5053280;28;20044;-62
2022/10/10 00:34:39;;;;;;;7.67;4.70;;;7.90;99.90;;;;;;5055054;28;20036;-62
2022/10/10 00:37:04;;;;;;;8.03;3.87;;;7.80;99.90;;;;;;5071085;28;20154;-63
2022/10/10 00:39:30;;;;;;;9.80;5.27;;;7.80;99.90;;;;;;5069629;28;20086;-62
2022/10/10 00:41:55;;;;;;;4.88;4.07;;;7.80;99.90;;;;;;5064204;28;20127;-62
2022/10/10 00:44:21;;;;;;;7.37;4.07;;;7.80;99.90;;;;;;5070938;28;20190;-63
2022/10/10 00:46:47;;;;;;;9.07;4.38;;;7.80;99.90;;;;;;5054439;28;20049;-63
2022/10/10 00:49:17;;;;;;;6.13;3.97;;;7.70;99.90;;;;;;5058069;28;20048;-63
2022/10/10 00:51:46;;;;;;;5.60;4.35;;;7.70;99.90;;;;;;5068252;28;20040;-62
2022/10/10 00:54:13;;;;;;;6.78;4.57;;;7.70;99.90;;;;;;5062284;28;20053;-62
2022/10/10 00:56:46;;;;;;;4.85;4.05;;;7.60;99.90;;;;;;5057617;28;20033;-62
2022/10/10 00:59:14;;;;;;;6.32;3.65;;;7.60;99.90;;;;;;5055754;28;20048;-62
2022/10/10 01:01:40;;;;;;;4.90;3.35;;;7.50;99.90;;;;;;5067416;28;20405;-62
2022/10/10 01:04:37;;;;;;;7.13;3.97;;;7.40;99.90;;;;;;5066599;28;20037;-62
2022/10/10 01:07:25;;;;;;;7.65;4.13;;;7.40;99.90;;;;;;5060943;28;20041;-62
2022/10/10 01:09:55;;;;;;;9.25;4.18;;;7.30;99.90;;;;;;5055856;28;20059;-62
2022/10/10 01:12:20;;;;;;;5.55;3.97;;;7.20;99.90;;;;;;5065047;28;20070;-62
2022/10/10 01:14:49;;;;;;;4.90;3.83;;;7.00;99.90;;;;;;5054253;28;20080;-62
2022/10/10 01:17:59;;;;;;;4.85;3.75;;;6.80;99.90;;;;;;5068378;28;20029;-62
2022/10/10 01:20:30;;;;;;;13.95;5.63;;;6.70;99.90;;;;;;4989607;28;20419;-62
2022/10/10 01:23:01;;;;;;;7.13;4.68;;;6.60;99.90;;;;;;4989283;28;20043;-61
2022/10/10 01:25:51;;;;;;;5.35;4.85;;;6.60;99.90;;;;;;4988356;28;20042;-62
2022/10/10 01:28:25;;;;;;;6.22;4.57;;;6.50;99.90;;;;;;4938061;28;20516;-62
2022/10/10 01:30:53;;;;;;;8.75;5.68;;;6.50;99.90;;;;;;4975450;28;20056;-63
2022/10/10 01:33:44;;;;;;;10.43;5.03;;;6.50;99.90;;;;;;4971514;28;20483;-64
2022/10/10 01:36:17;;;;;;;6.63;5.57;;;6.50;99.90;;;;;;4966509;28;20078;-63
2022/10/10 01:38:58;;;;;;;11.88;5.95;;;6.50;99.90;;;;;;4985360;28;20101;-62
2022/10/10 01:41:28;;;;;;;6.40;5.80;;;6.50;99.90;;;;;;4971857;28;20097;-63
2022/10/10 01:43:55;;;;;;;6.65;5.22;;;6.60;99.90;;;;;;4974978;28;20058;-62
2022/10/10 01:46:21;;;;;;;7.15;5.85;;;6.60;99.90;;;;;;4981199;28;20385;-62
2022/10/10 01:48:49;;;;;;;13.67;7.00;;;6.70;99.90;;;;;;4978888;28;20158;-62
2022/10/10 01:51:29;;;;;;;10.73;6.50;;;6.70;99.90;;;;;;5014668;28;20348;-63
2022/10/10 01:54:27;;;;;;;9.25;6.30;;;6.80;99.90;;;;;;5069696;28;20041;-63
2022/10/10 01:57:08;;;;;;;8.27;6.18;;;6.90;99.90;;;;;;5062876;28;20051;-63
2022/10/10 01:59:50;;;;;;;13.32;6.57;;;6.90;99.90;;;;;;5061928;28;20049;-62
2022/10/10 02:02:23;;;;;;;9.55;7.07;;;7.00;99.90;;;;;;5065808;28;20036;-62
2022/10/10 02:04:59;;;;;;;7.60;6.07;;;7.00;99.90;;;;;;5054639;28;20044;-63
2022/10/10 02:07:34;;;;;;;10.60;7.20;;;7.00;99.90;;;;;;5064743;28;20055;-62
2022/10/10 02:10:04;;;;;;;10.40;6.00;;;7.00;99.90;;;;;;5063399;28;20045;-63
2022/10/10 02:12:30;;;;;;;10.05;7.10;;;7.00;99.90;;;;;;5067152;28;20055;-62
2022/10/10 02:15:02;;;;;;;8.88;6.07;;;7.00;99.90;;;;;;5052357;28;20037;-62
2022/10/10 02:17:29;;;;;;;10.18;7.13;;;7.00;99.90;;;;;;5056758;28;20102;-62
2022/10/10 02:19:57;;;;;;;7.13;6.07;;;7.00;99.90;;;;;;5065559;28;20036;-62
2022/10/10 02:22:24;;;;;;;12.35;6.57;;;7.00;99.90;;;;;;5059460;28;20551;-63
2022/10/10 02:24:51;;;;;;;6.93;6.00;;;7.00;99.90;;;;;;5066067;28;20051;-62
2022/10/10 02:27:31;;;;;;;6.57;5.97;;;7.00;99.90;;;;;;5059021;28;20040;-62
2022/10/10 02:29:58;;;;;;;6.50;5.90;;;7.00;99.90;;;;;;5064683;28;20044;-62
2022/10/10 02:32:33;;;;;;;6.57;6.00;;;7.00;99.90;;;;;;5067673;28;20037;-63
2022/10/10 02:35:04;;;;;;;7.43;5.45;;;7.10;99.90;;;;;;5053907;28;20522;-62
2022/10/10 02:37:30;;;;;;;8.38;5.78;;;7.10;99.90;;;;;;5058765;28;20395;-61
2022/10/10 02:39:58;;;;;;;;;;;7.10;99.90;;;;;;5064048;28;20041;-62
2022/10/10 02:42:26;;;;;;;7.32;5.60;;;7.20;99.90;;;;;;5065227;28;19923;-63
2022/10/10 02:44:53;;;;;;;5.78;5.18;;;7.20;99.90;;;;;;5053291;28;20522;-62
2022/10/10 02:47:18;;;;;;;;;;;7.20;99.90;;;;;;5054448;28;20037;-62
2022/10/10 02:49:45;;;;;;;9.40;5.28;;;7.20;99.90;;;;;;5055321;28;19970;-62
2022/10/10 02:52:13;;;;;;;9.43;5.10;;;7.30;99.90;;;;;;5057808;28;20064;-63
2022/10/10 02:54:39;;;;;;;9.45;5.60;;;7.30;99.90;;;;;;5064590;28;20047;-62
2022/10/10 02:57:05;;;;;;;5.07;4.68;;;7.30;99.90;;;;;;5060671;28;20044;-62
2022/10/10 02:59:30;;;;;;;8.43;5.93;;;7.30;99.90;;;;;;5058041;28;20029;-62
2022/10/10 03:01:56;;;;;;;10.00;5.27;;;7.30;99.90;;;;;;5065985;28;20044;-62
2022/10/10 03:04:21;;;;;;;6.27;5.40;;;7.30;99.90;;;;;;5058377;28;20036;-62
2022/10/10 03:06:47;;;;;;;8.90;5.47;;;7.30;99.90;;;;;;5069833;28;20448;-62
2022/10/10 03:09:13;;;;;;;6.80;5.47;;;7.30;99.90;;;;;;5064877;28;20111;-62
2022/10/10 03:11:38;;;;;;;5.03;4.53;;;7.30;99.90;;;;;;5051162;28;20754;-62
2022/10/10 03:14:04;;;;;;;11.83;5.63;;;7.30;99.90;;;;;;5054169;28;20041;-62
2022/10/10 03:16:29;;;;;;;8.30;5.00;;;7.30;99.90;;;;;;5051680;28;20099;-62
2022/10/10 03:18:55;;;;;;;5.90;5.40;;;7.30;99.90;;;;;;5068613;28;20062;-62
2022/10/10 03:21:20;;;;;;;8.87;5.77;;;7.30;99.90;;;;;;5054920;28;20284;-63
2022/10/10 03:23:46;;;;;;;7.67;5.53;;;7.20;99.90;;;;;;5062706;28;20040;-62
2022/10/10 03:26:12;;;;;;;8.20;5.17;;;7.20;99.90;;;;;;5052774;28;20044;-62
2022/10/10 03:28:37;;;;;;;5.35;4.65;;;7.20;99.90;;;;;;5055587;28;20087;-63
2022/10/10 03:31:03;;;;;;;7.27;5.83;;;7.10;99.90;;;;;;5052110;28;20087;-62
2022/10/10 03:33:29;;;;;;;7.03;5.22;;;7.10;99.90;;;;;;5059704;28;20532;-63
2022/10/10 03:35:54;;;;;;;9.53;6.03;;;7.10;99.90;;;;;;5056787;28;20040;-62
2022/10/10 03:38:20;;;;;;;5.53;5.03;;;7.10;99.90;;;;;;5058567;28;20405;-62
2022/10/10 03:40:46;;;;;;;8.17;5.27;;;7.10;99.90;;;;;;5058323;28;20106;-62
2022/10/10 03:43:13;;;;;;;6.45;4.97;;;7.00;99.90;;;;;;5056765;28;20064;-63
2022/10/10 03:45:42;;;;;;;5.55;4.93;;;7.10;99.90;;;;;;5055841;28;20045;-62
2022/10/10 03:48:08;;;;;;;7.85;5.35;;;7.10;99.90;;;;;;5064926;28;20055;-63
2022/10/10 03:50:34;;;;;;;6.10;5.50;;;7.10;99.90;;;;;;5070758;28;20045;-63
2022/10/10 03:52:59;;;;;;;5.70;5.15;;;7.10;99.90;;;;;;5064180;28;20044;-62
2022/10/10 03:55:25;;;;;;;5.57;5.17;;;7.10;99.90;;;;;;5060092;28;20601;-62
2022/10/10 03:57:50;;;;;;;9.10;5.83;;;7.10;99.90;;;;;;5055527;28;20331;-63
2022/10/10 04:00:16;;;;;;;6.90;4.60;;;7.10;99.90;;;;;;5059878;28;20044;-62
2022/10/10 04:02:41;;;;;;;7.47;5.30;;;7.10;99.90;;;;;;5064139;28;20087;-62
2022/10/10 04:05:08;;;;;;;7.67;5.20;;;7.10;99.90;;;;;;5062037;28;20037;-62
2022/10/10 04:07:33;;;;;;;;;;;7.10;99.90;;;;;;5059257;28;20422;-62
2022/10/10 04:09:59;;;;;;;7.47;6.00;;;7.10;99.90;;;;;;5069802;28;19921;-62
2022/10/10 04:12:25;;;;;;;7.00;5.80;;;7.10;99.90;;;;;;5054782;28;20486;-62
2022/10/10 04:14:51;;;;;;;9.85;5.25;;;7.00;99.90;;;;;;5070042;28;20033;-62
2022/10/10 04:17:16;;;;;;;7.33;5.00;;;7.10;99.90;;;;;;5057069;28;20532;-63
2022/10/10 04:19:42;;;;;;;6.97;4.77;;;7.10;99.90;;;;;;5062785;28;20413;-63
2022/10/10 04:22:07;;;;;;;6.20;5.50;;;7.10;99.90;;;;;;5068190;28;20136;-62
2022/10/10 04:24:33;;;;;;;8.73;6.40;;;7.10;99.90;;;;;;5066559;28;20047;-62
2022/10/10 04:26:58;;;;;;;9.83;5.77;;;7.10;99.90;;;;;;5055771;28;20044;-62
2022/10/10 04:29:24;;;;;;;17.93;7.20;;;7.10;99.90;;;;;;5056479;28;20337;-63
2022/10/10 04:31:49;;;;;;;5.63;5.13;;;7.20;99.90;;;;;;5055201;28;20123;-63
2022/10/10 04:34:15;;;;;;;6.73;5.43;;;7.20;99.90;;;;;;5062394;28;20033;-62
2022/10/10 04:36:41;;;;;;;7.73;5.73;;;7.20;99.90;;;;;;5057915;28;20037;-63
2022/10/10 04:39:07;;;;;;;6.32;5.72;;;7.20;99.90;;;;;;5061335;28;20286;-62
2022/10/10 04:41:32;;;;;;;7.00;4.63;;;7.10;99.90;;;;;;5061318;28;20116;-62
2022/10/10 04:43:58;;;;;;;5.90;5.28;;;7.10;99.90;;;;;;5062180;28;20838;-63
2022/10/10 04:46:24;;;;;;;7.50;5.13;;;7.10;99.90;;;;;;5062456;28;20041;-62
2022/10/10 04:48:49;;;;;;;10.43;4.88;;;7.10;99.90;;;;;;5069432;28;20107;-62
2022/10/10 04:51:16;;;;;;;7.77;5.57;;;7.00;99.90;;;;;;5069684;28;20045;-63
2022/10/10 04:53:41;;;;;;;;;;;7.00;99.90;;;;;;5069167;28;20472;-62
2022/10/10 04:56:07;;;;;;;13.25;5.40;;;7.00;99.90;;;;;;5059636;28;19917;-62
2022/10/10 04:58:32;;;;;;;8.70;5.60;;;7.00;99.90;;;;;;5055319;28;20033;-63
2022/10/10 05:00:58;;;;;;;6.37;5.63;;;6.90;99.90;;;;;;5064981;28;20079;-62
2022/10/10 05:03:24;;;;;;;6.33;5.73;;;6.90;99.90;;;;;;5057159;28;20032;-62
2022/10/10 05:05:50;;;;;;;;;;;6.90;99.90;;;;;;5061735;28;20142;-62
2022/10/10 05:08:17;;;;;;;7.40;5.65;;;6.90;99.90;;;;;;5052303;28;20011;-62
2022/10/10 05:10:44;;;;;;;14.43;5.53;;;6.90;99.90;;;;;;5064108;28;20037;-63
2022/10/10 05:13:12;;;;;;;6.13;5.47;;;6.90;99.90;;;;;;5053271;28;20065;-62
2022/10/10 05:15:38;;;;;;;9.10;5.00;;;6.90;99.90;;;;;;5056959;28;20414;-62
2022/10/10 05:18:03;;;;;;;8.80;5.68;;;6.90;99.90;;;;;;5057971;28;20038;-62
2022/10/10 05:20:30;;;;;;;6.95;5.72;;;6.90;99.90;;;;;;5063277;28;20807;-63
2022/10/10 05:22:55;;;;;;;;;;;6.90;99.90;;;;;;5060371;28;20493;-62
2022/10/10 05:25:21;;;;;;;8.70;5.43;;;6.90;99.90;;;;;;5061782;28;19916;-63
2022/10/10 05:27:46;;;;;;;9.13;6.13;;;6.90;99.90;;;;;;5065055;28;20098;-62
2022/10/10 05:30:13;;;;;;;10.47;5.40;;;6.90;99.90;;;;;;5053803;28;20024;-62
2022/10/10 05:32:38;;;;;;;;;;;6.80;99.90;;;;;;5065939;28;20036;-62
2022/10/10 05:35:04;;;;;;;6.13;5.03;;;6.90;99.90;;;;;;5070854;28;20380;-62
2022/10/10 05:37:31;;;;;;;8.25;6.55;;;6.90;99.90;;;;;;5061700;28;20075;-62
2022/10/10 05:39:56;;;;;;;7.82;5.53;;;6.90;99.90;;;;;;5062010;28;20036;-62
2022/10/10 05:42:22;;;;;;;8.75;5.80;;;6.90;99.90;;;;;;5064746;28;20505;-62
2022/10/10 05:44:48;;;;;;;11.32;6.43;;;6.90;99.90;;;;;;5058087;28;20125;-62
2022/10/10 05:47:14;;;;;;;6.05;5.32;;;6.90;99.90;;;;;;5071149;28;20094;-63
2022/10/10 05:49:39;;;;;;;6.47;5.27;;;6.90;99.90;;;;;;5071500;28;20040;-62
2022/10/10 05:52:05;;;;;;;6.87;5.10;;;7.00;99.90;;;;;;5070170;28;20748;-62
2022/10/10 05:54:30;;;;;;;10.83;6.47;;;7.00;99.90;;;;;;5071241;28;20082;-62
2022/10/10 05:56:56;;;;;;;8.40;6.00;;;7.10;99.90;;;;;;5071420;28;20087;-63
2022/10/10 05:59:22;;;;;;;6.00;5.40;;;7.10;99.90;;;;;;5060602;28;20087;-62
2022/10/10 06:01:48;;;;;;;5.50;4.93;;;7.10;99.90;;;;;;5049843;28;20517;-62
2022/10/10 06:04:13;;;;;;;6.88;6.00;;;7.20;99.90;;;;;;5052027;28;20059;-62
2022/10/10 06:06:39;;;;;;;7.47;5.07;;;7.30;99.90;;;;;;5051269;28;20033;-62
2022/10/10 06:09:04;;;;;;;6.93;5.97;;;7.40;99.90;;;;;;5051481;28;20033;-63
2022/10/10 06:11:30;;;;;;;34.90;28.63;;;7.50;99.90;;;;;;5050128;28;20033;-62
2022/10/10 06:13:56;;;;;;;15.23;14.00;;;7.70;99.90;;;;;;5058566;28;20037;-62
2022/10/10 06:16:23;;;;;;;10.50;9.43;;;8.00;99.90;;;;;;5070893;28;20032;-62
2022/10/10 06:18:49;;;;;;;6.05;5.63;;;8.30;99.90;;;;;;5071336;28;20048;-63
2022/10/10 06:21:15;;;;;;;6.07;5.53;;;8.70;99.90;;;;;;5071007;28;20329;-63
2022/10/10 06:23:41;;;;;;;6.45;5.43;;;9.00;99.90;;;;;;5058133;28;20046;-62
2022/10/10 06:26:07;;;;;;;;;;;9.30;99.90;;;;;;5051633;28;20290;-63
2022/10/10 06:28:34;;;;;;;7.25;4.38;;;9.40;99.90;;;;;;5057917;28;19971;-62
2022/10/10 06:31:00;;;;;;;3.28;2.97;;;9.60;99.90;;;;;;5077406;28;20044;-62
2022/10/10 06:33:26;;;;;;;3.97;3.60;;;9.80;99.90;;;;;;5071771;28;20036;-63
2022/10/10 06:35:52;;;;;;;4.10;3.38;;;10.00;99.90;;;;;;5050706;28;20501;-63
2022/10/10 06:38:17;;;;;;;4.35;3.95;;;10.30;99.90;;;;;;5058063;28;20032;-62
2022/10/10 06:40:44;;;;;;;5.70;3.50;;;10.60;99.90;;;;;;5069153;28;20124;-61
2022/10/10 06:43:11;;;;;;;7.03;3.25;;;11.00;99.90;;;;;;5065394;28;20714;-60
2022/10/10 06:45:43;;;;;;;8.05;3.38;;;11.20;99.90;;;;;;5054986;28;20033;-59
2022/10/10 06:48:09;;;;;;;6.20;4.22;;;11.40;99.90;;;;;;5051981;28;20064;-59
2022/10/10 06:50:35;;;;;;;7.25;3.83;;;11.60;99.90;;;;;;5058474;28;20063;-60
2022/10/10 06:53:02;;;;;;;6.45;3.22;;;11.80;99.90;;;;;;5059887;28;20055;-59
2022/10/10 06:55:27;;;;;;;6.70;3.05;;;12.00;99.90;;;;;;5069400;28;20128;-59
2022/10/10 06:57:53;;;;;;;9.50;3.97;;;12.20;99.90;;;;;;5066625;28;20491;-60
2022/10/10 07:00:19;;;;;;;7.53;3.80;;;12.50;99.90;;;;;;5060784;28;20094;-58
2022/10/10 07:02:44;;;;;;;5.82;3.72;;;12.70;99.90;;;;;;5053117;28;20282;-59
2022/10/10 07:05:11;;;;;;;6.20;3.60;;;12.50;99.90;;;;;;5050077;28;20051;-60
2022/10/10 07:07:40;;;;;;;4.45;3.90;;;12.20;99.90;;;;;;5065863;28;20060;-55
2022/10/10 07:10:07;;;;;;;7.10;3.55;;;12.10;99.90;;;;;;5051694;28;20033;-59
2022/10/10 07:12:33;;;;;;;7.75;3.60;;;11.80;99.90;;;;;;5063118;28;20032;-57
2022/10/10 07:14:58;;;;;;;5.13;3.57;;;11.70;99.90;;;;;;5061627;28;20514;-59
2022/10/10 07:17:24;;;;;;;8.63;4.17;;;11.50;99.90;;;;;;5053531;28;20041;-59
2022/10/10 07:19:49;;;;;;;7.30;5.20;;;11.40;99.90;;;;;;5065878;28;20036;-59
2022/10/10 07:22:15;;;;;;;8.20;4.37;;;11.30;99.90;;;;;;5069465;28;20036;-60
2022/10/10 07:24:40;;;;;;;12.43;4.57;;;11.20;99.90;;;;;;5068581;28;20127;-58
2022/10/10 07:27:06;;;;;;;5.13;4.20;;;11.20;99.90;;;;;;5061842;28;20783;-52
2022/10/10 07:29:31;;;;;;;11.33;4.23;;;11.10;99.90;;;;;;5061751;28;20101;-54
2022/10/10 07:31:57;;;;;;;4.90;4.38;;;11.10;99.90;;;;;;5050209;28;20135;-55
2022/10/10 07:34:23;;;;;;;8.73;5.05;;;11.10;99.90;;;;;;5050933;28;20127;-55
2022/10/10 07:36:49;;;;;;;10.95;4.53;;;11.20;99.90;;;;;;5058890;28;20051;-55
2022/10/10 07:39:22;;;;;;;10.35;4.05;;;11.20;99.90;;;;;;5056761;28;20040;-53
2022/10/10 07:41:49;;;;;;;9.02;4.68;;;11.30;99.90;;;;;;5061769;28;20040;-54
2022/10/10 07:44:15;;;;;;;5.75;4.18;;;11.30;99.90;;;;;;5054649;28;20076;-56
2022/10/10 07:46:41;;;;;;;12.93;5.35;;;11.40;99.90;;;;;;5044788;28;20033;-54
2022/10/10 07:49:07;;;;;;;7.93;4.53;;;11.40;99.90;;;;;;5048785;28;20090;-52
2022/10/10 07:51:32;;;;;;;8.32;4.97;;;11.50;99.90;;;;;;5049008;28;20327;-52
2022/10/10 07:53:58;;;;;;;11.47;5.77;;;11.50;99.90;;;;;;5049053;28;20064;-55
2022/10/10 07:56:24;;;;;;;8.63;5.57;;;11.50;99.90;;;;;;5048251;28;20041;-54
2022/10/10 07:58:50;;;;;;;9.30;5.28;;;11.50;99.90;;;;;;5049668;28;20036;-52
2022/10/10 08:01:16;;;;;;;8.00;5.05;;;11.50;99.90;;;;;;5064194;28;20094;-54
2022/10/10 08:03:42;;;;;;;8.80;5.45;;;11.60;99.90;;;;;;5051386;28;20534;-55
2022/10/10 08:06:13;;;;;;;8.50;5.55;;;11.60;99.90;;;;;;5060812;28;20575;-55
2022/10/10 08:08:40;;;;;;;9.25;6.10;;;11.80;99.90;;;;;;5049714;28;20409;-55
2022/10/10 08:11:07;;;;;;;7.20;5.15;;;11.80;99.90;;;;;;5059419;28;20040;-55
2022/10/10 08:13:34;;;;;;;9.73;4.47;;;11.90;99.90;;;;;;5058244;28;20056;-52
2022/10/10 08:16:00;;;;;;;9.20;5.10;;;11.90;99.90;;;;;;5060065;28;20036;-56
2022/10/10 08:18:25;;;;;;;7.13;5.15;;;12.00;99.90;;;;;;5044664;28;20041;-56
2022/10/10 08:21:02;;;;;;;9.80;5.25;;;12.10;99.90;;;;;;5049503;28;20138;-55
2022/10/10 08:23:28;;;;;;;;;;;12.10;99.90;;;;;;5047272;28;20041;-54
2022/10/10 08:25:56;;;;;;;8.48;5.63;;;12.20;99.90;;;;;;5056633;28;19923;-54
2022/10/10 08:28:22;;;;;;;9.40;5.47;;;12.30;99.90;;;;;;5055724;28;20514;-54
2022/10/10 08:30:48;;;;;;;7.72;5.68;;;12.30;99.90;;;;;;5054037;28;20037;-54
2022/10/10 08:33:14;;;;;;;7.35;5.22;;;12.30;99.90;;;;;;5057100;28;20036;-56
2022/10/10 08:35:40;;;;;;;9.38;5.85;;;12.40;99.90;;;;;;5051498;28;20029;-55
2022/10/10 08:38:06;;;;;;;23.52;6.03;;;12.40;99.90;;;;;;5059683;28;20047;-55
2022/10/10 08:40:32;;;;;;;17.35;5.78;;;12.50;99.90;;;;;;5049183;28;20398;-55
2022/10/10 08:43:03;;;;;;;8.50;5.97;;;12.50;99.90;;;;;;5048935;28;20045;-55
2022/10/10 08:45:31;;;;;;;7.22;5.53;;;12.50;99.90;;;;;;5055879;28;20476;-55
2022/10/10 08:48:04;;;;;;;8.80;5.93;;;12.50;99.90;;;;;;5058946;28;20447;-54
2022/10/10 08:50:38;;;;;;;11.27;6.15;;;12.50;99.90;;;;;;5048652;28;20130;-54
2022/10/10 08:53:16;;;;;;;8.05;5.68;;;12.50;99.90;;;;;;5056202;28;20044;-55
2022/10/10 08:55:42;;;;;;;9.07;5.40;;;12.50;99.90;;;;;;5053715;28;20456;-55
2022/10/10 08:58:19;;;;;;;9.68;5.70;;;12.50;99.90;;;;;;5050074;28;20037;-55
2022/10/10 09:00:54;;;;;;;11.68;5.82;;;12.50;99.90;;;;;;5053492;28;20036;-56
2022/10/10 09:03:44;;;;;;;8.52;5.30;;;12.50;99.90;;;;;;5057890;28;20045;-52
2022/10/10 09:06:18;;;;;;;7.25;5.55;;;12.60;99.90;;;;;;5056490;28;20044;-55
2022/10/10 09:08:58;;;;;;;10.38;5.85;;;12.60;99.90;;;;;;5056787;28;20044;-56
2022/10/10 09:11:43;;;;;;;8.23;5.93;;;12.70;99.90;;;;;;5052868;28;20025;-54
2022/10/10 09:14:46;;;;;;;10.43;5.60;;;12.70;99.90;;;;;;5055543;28;20051;-55
2022/10/10 09:17:53;;;;;;;8.55;5.22;;;12.70;99.90;;;;;;5055745;28;20317;-55
2022/10/10 09:20:25;;;;;;;12.25;6.68;;;12.80;99.90;;;;;;5049887;28;20049;-55
2022/10/10 09:23:02;;;;;;;11.90;5.70;;;13.00;99.90;;;;;;5061404;28;20049;-56
2022/10/10 09:25:36;;;;;;;10.45;5.22;;;13.10;99.90;;;;;;5050605;28;20436;-55
2022/10/10 09:28:30;;;;;;;10.38;6.40;;;13.10;99.90;;;;;;5059807;28;20037;-56
2022/10/10 09:30:59;;;;;;;11.82;6.45;;;13.20;99.90;;;;;;5061973;28;20120;-56
2022/10/10 09:33:56;;;;;;;10.60;5.65;;;13.20;99.90;;;;;;5053595;28;20045;-55
2022/10/10 09:36:32;;;;;;;12.02;5.40;;;13.10;99.90;;;;;;4986466;28;20054;-57
2022/10/10 09:39:04;;;;;;;13.75;6.50;;;13.10;99.90;;;;;;5054391;28;20093;-55
2022/10/10 09:41:39;;;;;;;8.95;5.90;;;13.20;99.90;;;;;;5047304;28;20047;-55
2022/10/10 09:44:10;;;;;;;10.27;6.80;;;13.30;99.90;;;;;;5055846;28;20060;-56
2022/10/10 09:46:36;;;;;;;10.30;6.50;;;13.30;99.90;;;;;;5054674;28;20043;-56
2022/10/10 09:49:02;;;;;;;;;;;13.40;99.90;;;;;;5053531;28;20037;-56
2022/10/10 09:51:28;;;;;;;11.27;6.07;;;13.50;99.90;;;;;;5050467;28;19931;-55
2022/10/10 09:53:53;;;;;;;;;;;13.60;99.90;;;;;;5051861;28;20090;-56
2022/10/10 09:56:30;;;;;;;8.88;5.70;;;13.70;99.90;;;;;;5058303;28;19917;-55
2022/10/10 09:58:56;;;;;;;11.55;6.22;;;13.90;99.90;;;;;;5053015;28;20036;-57
2022/10/10 10:01:31;;;;;;;9.55;5.82;;;14.00;99.90;;;;;;5055513;28;20060;-57
2022/10/10 10:04:15;;;;;;;9.05;6.60;;;14.10;99.90;;;;;;5053353;28;20457;-57
2022/10/10 10:06:44;;;;;;;9.93;6.15;;;14.20;99.90;;;;;;5051136;28;20041;-54
2022/10/10 10:09:15;;;;;;;9.70;6.07;;;14.40;99.90;;;;;;5052885;28;20348;-56
2022/10/10 10:11:41;;;;;;;9.70;5.78;;;14.50;99.90;;;;;;5060535;28;20025;-56
2022/10/10 10:14:27;;;;;;;11.70;5.65;;;14.60;99.90;;;;;;5056576;28;20094;-55
2022/10/10 10:17:03;;;;;;;12.60;6.53;;;14.60;99.90;;;;;;5035054;28;20505;-56
2022/10/10 10:19:32;;;;;;;11.40;5.90;;;14.50;99.90;;;;;;5061299;28;20464;-56
2022/10/10 10:21:57;;;;;;;8.18;5.97;;;14.60;99.90;;;;;;5049733;28;20529;-55
2022/10/10 10:24:29;;;;;;;8.32;5.95;;;14.70;99.90;;;;;;5050521;28;20033;-55
2022/10/10 10:26:55;;;;;;;17.92;7.25;;;14.80;99.90;;;;;;5062458;28;20048;-55
2022/10/10 10:29:28;;;;;;;10.57;5.90;;;14.90;99.90;;;;;;5065950;28;20036;-54
2022/10/10 10:32:12;;;;;;;11.40;6.72;;;14.90;99.90;;;;;;5060368;28;20044;-53
2022/10/10 10:34:57;;;;;;;8.52;6.00;;;15.00;99.90;;;;;;5063113;28;20028;-57
2022/10/10 10:37:39;;;;;;;14.23;6.45;;;15.00;99.90;;;;;;5063926;28;20037;-55
2022/10/10 10:40:07;;;;;;;16.88;6.20;;;15.00;99.90;;;;;;5051895;28;20029;-56
2022/10/10 10:42:38;;;;;;;12.07;5.95;;;15.00;99.90;;;;;;5049261;28;20036;-57
2022/10/10 10:45:32;;;;;;;8.15;5.90;;;15.10;99.90;;;;;;5052582;28;20119;-57
2022/10/10 10:48:18;;;;;;;12.20;6.63;;;15.10;99.90;;;;;;5056679;28;20072;-56
2022/10/10 10:50:54;;;;;;;9.48;6.10;;;15.10;99.90;;;;;;5052029;28;20044;-55
2022/10/10 10:53:28;;;;;;;8.80;5.60;;;15.20;99.90;;;;;;5052266;28;20051;-57
2022/10/10 10:56:41;;;;;;;9.30;5.88;;;15.20;99.90;;;;;;5034254;28;20087;-57
2022/10/10 10:59:20;;;;;;;13.02;5.97;;;15.20;99.90;;;;;;4998150;28;20181;-57
2022/10/10 11:02:00;;;;;;;9.90;6.10;;;15.20;99.90;;;;;;5055577;28;20041;-56
2022/10/10 11:04:37;;;;;;;11.50;6.40;;;15.40;99.90;;;;;;5053019;28;20032;-58
2022/10/10 11:07:15;;;;;;;9.50;5.35;;;15.40;99.90;;;;;;5051176;28;20056;-57
2022/10/10 11:09:53;;;;;;;10.85;5.85;;;15.50;99.90;;;;;;5055577;28;20060;-57
2022/10/10 11:12:55;;;;;;;19.45;6.38;;;15.50;99.90;;;;;;5052562;28;20047;-57
2022/10/10 11:15:27;;;;;;;14.18;6.15;;;15.40;99.90;;;;;;5054373;28;20036;-57
2022/10/10 11:17:59;;;;;;;11.15;6.05;;;15.30;99.90;;;;;;5055726;28;20041;-55
2022/10/10 11:20:40;;;;;;;14.15;6.32;;;15.20;99.90;;;;;;5055741;28;20123;-56
2022/10/10 11:23:18;;;;;;;6.55;5.82;;;15.20;99.90;;;;;;5053298;28;20041;-57
2022/10/10 11:25:49;;;;;;;10.00;5.60;;;15.20;99.90;;;;;;5052981;28;20132;-57
2022/10/10 11:28:26;;;;;;;8.52;4.97;;;15.20;99.90;;;;;;5052822;28;20128;-56
2022/10/10 11:31:13;;;;;;;12.65;5.90;;;15.20;99.90;;;;;;5050986;28;20528;-56
2022/10/10 11:33:46;;;;;;;11.43;6.30;;;15.20;99.90;;;;;;5053598;28;20519;-55
2022/10/10 11:36:24;;;;;;;10.38;5.47;;;15.20;99.90;;;;;;5057223;28;20047;-57
2022/10/10 11:39:04;;;;;;;11.65;6.28;;;15.30;99.90;;;;;;5047727;28;20400;-57
2022/10/10 11:41:58;;;;;;;10.60;5.65;;;15.30;99.90;;;;;;5057634;28;20119;-58
2022/10/10 11:44:33;;;;;;;12.25;6.25;;;15.30;99.90;;;;;;5056439;28;20033;-57
2022/10/10 11:47:10;;;;;;;9.20;6.30;;;15.30;99.90;;;;;;5051530;28;20040;-58
2022/10/10 11:49:46;;;;;;;;;;;15.30;99.90;;;;;;5055812;28;20041;-55
2022/10/10 11:52:28;;;;;;;11.65;6.18;;;15.30;99.90;;;;;;5051104;28;20356;-57
2022/10/10 11:55:11;;;;;;;8.55;6.13;;;15.30;99.90;;;;;;5050123;28;20037;-57
2022/10/10 11:57:54;;;;;;;8.98;5.03;;;15.30;99.90;;;;;;5054880;28;20040;-57
2022/10/10 12:00:20;;;;;;;11.13;6.13;;;15.40;99.90;;;;;;5057331;28;20078;-56
2022/10/10 12:02:47;;;;;;;10.93;6.43;;;15.40;99.90;;;;;;5058114;28;20103;-56
2022/10/10 12:05:22;;;;;;;12.68;5.80;;;15.50;99.90;;;;;;5055458;28;20597;-57
2022/10/10 12:08:11;;;;;;;9.57;5.55;;;15.50;99.90;;;;;;5057948;28;20536;-58
2022/10/10 12:10:51;;;;;;;8.70;5.78;;;15.50;99.90;;;;;;5055819;28;20044;-56
2022/10/10 12:13:26;;;;;;;8.65;5.72;;;15.50;99.90;;;;;;5056208;28;20037;-57
2022/10/10 12:15:56;;;;;;;8.68;5.10;;;15.50;99.90;;;;;;5055758;28;20109;-57
2022/10/10 12:18:39;;;;;;;12.95;5.90;;;15.50;99.90;;;;;;5059298;28;20048;-57
2022/10/10 12:21:17;;;;;;;8.27;4.97;;;15.40;99.90;;;;;;5059818;28;20098;-56
2022/10/10 12:23:47;;;;;;;11.70;5.10;;;15.40;99.90;;;;;;5055977;28;20037;-57
2022/10/10 12:26:19;;;;;;;9.75;4.95;;;15.40;99.90;;;;;;5057736;28;20366;-56
2022/10/10 12:29:05;;;;;;;6.43;5.13;;;15.40;99.90;;;;;;5059089;28;20090;-56
2022/10/10 12:31:35;;;;;;;9.40;5.00;;;15.40;99.90;;;;;;5060228;28;20489;-57
2022/10/10 12:34:08;;;;;;;12.02;5.05;;;15.50;99.90;;;;;;5058500;28;20040;-57
2022/10/10 12:36:41;;;;;;;6.88;5.53;;;15.50;99.90;;;;;;5059625;28;20028;-56
2022/10/10 12:39:10;;;;;;;13.93;6.00;;;15.50;99.90;;;;;;5057310;28;20565;-57
2022/10/10 12:41:41;;;;;;;10.95;5.55;;;15.60;99.90;;;;;;5057047;28;20071;-56
2022/10/10 12:44:25;;;;;;;8.43;4.68;;;15.60;99.90;;;;;;5055282;28;20091;-56
2022/10/10 12:47:12;;;;;;;7.05;4.78;;;15.60;99.90;;;;;;5053438;28;20643;-57
2022/10/10 12:49:56;;;;;;;9.55;4.80;;;15.60;99.90;;;;;;5058018;28;20041;-57
2022/10/10 12:52:31;;;;;;;9.57;4.63;;;15.60;99.90;;;;;;5060548;28;20052;-56
2022/10/10 12:55:25;;;;;;;11.80;4.50;;;15.70;99.90;;;;;;5058708;28;20067;-56
2022/10/10 12:57:56;;;;;;;11.68;4.13;;;15.70;99.90;;;;;;5057243;28;20388;-57
2022/10/10 13:00:25;;;;;;;10.93;4.60;;;15.70;99.90;;;;;;5055542;28;20032;-56
2022/10/10 13:02:56;;;;;;;9.52;4.45;;;15.60;99.90;;;;;;5056701;28;20064;-55
2022/10/10 13:05:33;;;;;;;8.75;4.50;;;15.60;99.90;;;;;;5055921;28;20117;-57
2022/10/10 13:08:02;;;;;;;11.23;4.15;;;15.60;99.90;;;;;;5054072;28;20071;-58
2022/10/10 13:10:29;;;;;;;9.43;4.32;;;15.60;99.90;;;;;;5055841;28;20083;-57